Creole Ann — WDC3286 — position and weather

sailwx.info

Track history (hours):
 
Tides and Currents Weather Stations Pressure Air Temp Water Temp Dewpoint Dewpoint Depression Visibility Wind Speed Wind Dir Waves Ship Positions

Creole Ann

Owner: LeBeouf Bros. Towing, L.L.C., Houma, LA. More information available from US FCC via Universal Licensing System and Coast Guard Vessel Documentation Center.

Last reported at 2018-Feb-25 19:30 UTC. Time now 2018-Feb-25 19:33 UTC.
Position N 30°02' W 094°03'.

Length 20 m.

MMSI: 367005280.

Date/timePositionNaut miles runAvg speedWind from/ knotsBaromVisibWave heightAir tempDewpointWater temp
2018-Feb-25 19:30N 30°02' W 094°03'0 0.0
2018-Feb-25 19:00N 30°02' W 094°03'0 0.0
2018-Feb-25 18:30N 30°02' W 094°03'0 0.0
2018-Feb-25 18:00N 30°02' W 094°03'0 0.0
2018-Feb-25 17:31N 30°02' W 094°03'0 0.0
2018-Feb-25 17:00N 30°02' W 094°03'0 0.0
2018-Feb-25 16:30N 30°02' W 094°03'0 0.0
2018-Feb-25 16:00N 30°02' W 094°03'0 0.0
2018-Feb-25 15:30N 30°02' W 094°03'0 0.1
2018-Feb-25 15:00N 30°02' W 094°03'0 0.0
2018-Feb-25 14:30N 30°02' W 094°03'0 0.0
2018-Feb-25 14:00N 30°02' W 094°03'0 0.0
2018-Feb-25 13:30N 30°02' W 094°03'0 0.0
2018-Feb-25 13:00N 30°02' W 094°03'0 0.0
2018-Feb-25 12:30N 30°02' W 094°03'0 0.0
2018-Feb-25 12:01N 30°02' W 094°03'0 0.0
2018-Feb-25 11:30N 30°02' W 094°03'0 0.0
2018-Feb-25 11:00N 30°02' W 094°03'0 0.0
2018-Feb-25 10:30N 30°02' W 094°03'0 0.0
2018-Feb-25 10:00N 30°02' W 094°03'0 0.0
2018-Feb-25 09:30N 30°02' W 094°03'0 0.0
2018-Feb-25 09:01N 30°02' W 094°03'0 0.0
2018-Feb-25 08:30N 30°02' W 094°03'0 0.0
2018-Feb-25 08:00N 30°02' W 094°03'0 0.0
2018-Feb-25 07:30N 30°02' W 094°03'0 0.0
2018-Feb-25 06:59N 30°02' W 094°03'0 0.0
2018-Feb-25 06:30N 30°02' W 094°03'0 0.0
2018-Feb-25 06:00N 30°02' W 094°03'0 0.0
2018-Feb-25 05:30N 30°02' W 094°03'0 0.0
2018-Feb-25 05:00N 30°02' W 094°03'0 0.0
2018-Feb-25 04:30N 30°02' W 094°03'0 0.0
2018-Feb-25 04:00N 30°02' W 094°03'0 0.0
2018-Feb-25 03:29N 30°02' W 094°03'0 0.0
2018-Feb-25 03:00N 30°02' W 094°03'0 0.0
2018-Feb-25 02:29N 30°02' W 094°03'0 0.0
2018-Feb-25 02:00N 30°02' W 094°03'0 0.0
2018-Feb-25 01:30N 30°02' W 094°03'0 0.0
2018-Feb-25 01:00N 30°02' W 094°03'0 0.0
2018-Feb-25 00:30N 30°02' W 094°03'0 0.0
2018-Feb-25 00:00N 30°02' W 094°03'0 0.0
2018-Feb-24 23:30N 30°02' W 094°03'0 0.0
2018-Feb-24 23:00N 30°02' W 094°03'0 0.0
2018-Feb-24 22:30N 30°02' W 094°03'0 0.0
2018-Feb-24 22:00N 30°02' W 094°03'0 0.0
2018-Feb-24 21:30N 30°02' W 094°03'0 0.0
2018-Feb-24 21:01N 30°02' W 094°03'0 0.0
2018-Feb-24 20:30N 30°02' W 094°03'0 0.0
2018-Feb-24 20:00N 30°02' W 094°03'0 0.0
2018-Feb-24 19:30N 30°02' W 094°03'0 0.0
2018-Feb-24 19:00N 30°02' W 094°03'0 0.0
2018-Feb-24 18:30N 30°02' W 094°03'0 0.0
2018-Feb-24 18:00N 30°02' W 094°03'0 0.0
2018-Feb-24 17:30N 30°02' W 094°03'0 0.0
2018-Feb-24 17:00N 30°02' W 094°03'0 0.0
2018-Feb-24 16:30N 30°02' W 094°03'0 0.0
2018-Feb-24 16:00N 30°02' W 094°03'0 0.2
2018-Feb-24 15:31N 30°02' W 094°03'3 6.1
2018-Feb-24 15:00N 30°01' W 093°60'0 0.9
2018-Feb-24 14:30N 30°01' W 093°59'3 5.4
2018-Feb-24 14:01N 29°60' W 093°56'3 6.4
2018-Feb-24 13:30N 29°59' W 093°53'3 5.9
2018-Feb-24 13:00N 29°59' W 093°49'4 7.5
2018-Feb-24 12:30N 30°01' W 093°46'4 7.4
2018-Feb-24 12:00N 30°03' W 093°42'4 7.6
2018-Feb-24 11:30N 30°04' W 093°38'4 7.1
2018-Feb-24 10:59N 30°04' W 093°34'3 6.9
2018-Feb-24 10:30N 30°04' W 093°30'3 6.9
2018-Feb-24 10:00N 30°04' W 093°26'3 6.8
2018-Feb-24 09:30N 30°04' W 093°22'3 5.5
2018-Feb-24 09:00N 30°05' W 093°20'3 5.5
2018-Feb-24 08:30N 30°08' W 093°19'0 0.2
2018-Feb-24 08:00N 30°08' W 093°19'0 0.0
2018-Feb-24 07:30N 30°08' W 093°19'0 0.0
2018-Feb-24 07:00N 30°08' W 093°19'0 0.0
2018-Feb-24 06:30N 30°08' W 093°19'0 0.0
2018-Feb-24 06:00N 30°08' W 093°19'0 0.0
2018-Feb-24 05:30N 30°08' W 093°19'0 0.0
2018-Feb-24 05:00N 30°08' W 093°19'0 0.0
2018-Feb-24 04:30N 30°08' W 093°19'0 0.0
2018-Feb-24 04:00N 30°08' W 093°19'0 0.0
2018-Feb-24 03:30N 30°08' W 093°19'0 0.0
2018-Feb-24 03:00N 30°08' W 093°19'0 0.0
2018-Feb-24 02:30N 30°08' W 093°19'0 0.0
2018-Feb-24 01:59N 30°08' W 093°19'0 0.0
2018-Feb-24 01:30N 30°08' W 093°19'0 0.0
2018-Feb-24 01:00N 30°08' W 093°19'0 0.0
2018-Feb-24 00:30N 30°08' W 093°19'0 0.0
2018-Feb-23 23:58N 30°08' W 093°19'0 0.0
2018-Feb-23 23:30N 30°08' W 093°19'0 0.0
2018-Feb-23 23:00N 30°08' W 093°19'0 0.1
2018-Feb-23 22:30N 30°08' W 093°19'0 0.0
2018-Feb-23 21:46N 30°08' W 093°19'0 0.0
2018-Feb-23 21:20N 30°08' W 093°19'0 0.0
2018-Feb-23 20:18N 30°08' W 093°19'0 0.0
2018-Feb-23 19:56N 30°08' W 093°19'0 0.1
2018-Feb-23 19:30N 30°08' W 093°19'3 4.9
2018-Feb-23 18:54N 30°05' W 093°20'2 4.3
2018-Feb-23 18:24N 30°04' W 093°21'2 3.9
2018-Feb-23 17:58N 30°04' W 093°23'2 3.9
2018-Feb-23 17:28N 30°04' W 093°26'2 4.3
2018-Feb-23 16:54N 30°04' W 093°28'6 4.3
2018-Feb-23 15:30N 30°04' W 093°36'3 4.5
2018-Feb-23 14:54N 30°04' W 093°39'2 4.6
2018-Feb-23 14:30N 30°03' W 093°41'2 4.0
2018-Feb-23 14:00N 30°03' W 093°43'2 4.2
2018-Feb-23 13:30N 30°02' W 093°44'2 4.3
2018-Feb-23 13:00N 30°00' W 093°46'2 4.6
2018-Feb-23 12:30N 29°59' W 093°49'2 4.9
2018-Feb-23 12:00N 29°58' W 093°51'2 3.5
2018-Feb-23 11:30N 29°59' W 093°53'0 0.1
2018-Feb-23 11:00N 29°59' W 093°53'0 0.0
2018-Feb-23 10:30N 29°59' W 093°53'0 0.0
2018-Feb-23 10:00N 29°59' W 093°53'0 0.0
2018-Feb-23 09:30N 29°59' W 093°53'0 0.0
2018-Feb-23 09:00N 29°59' W 093°53'0 0.0
2018-Feb-23 08:30N 29°59' W 093°53'0 0.0
2018-Feb-23 08:00N 29°59' W 093°53'0 0.0
2018-Feb-23 07:30N 29°59' W 093°53'0 0.0
2018-Feb-23 07:00N 29°59' W 093°53'1 1.8
2018-Feb-23 06:30N 29°59' W 093°54'3 6.3
2018-Feb-23 06:00N 30°00' W 093°57'3 5.8
2018-Feb-23 05:30N 30°01' W 094°01'2 4.5
2018-Feb-23 05:00N 30°02' W 094°03'0 0.2
2018-Feb-23 04:30N 30°02' W 094°03'0 0.0
2018-Feb-23 04:00N 30°02' W 094°03'0 0.0
2018-Feb-23 03:30N 30°02' W 094°03'0 0.0
2018-Feb-23 03:00N 30°02' W 094°03'0 0.0
2018-Feb-23 02:30N 30°02' W 094°03'0 0.0
2018-Feb-23 02:00N 30°02' W 094°03'0 0.0
2018-Feb-23 01:28N 30°02' W 094°03'0 0.0
2018-Feb-23 01:00N 30°02' W 094°03'0 0.0
2018-Feb-23 00:30N 30°02' W 094°03'0 0.0
2018-Feb-23 00:00N 30°02' W 094°03'0 0.0
2018-Feb-22 23:30N 30°02' W 094°03'0 0.0
2018-Feb-22 23:00N 30°02' W 094°03'0 0.0
2018-Feb-22 22:30N 30°02' W 094°03'0 0.0
2018-Feb-22 22:00N 30°02' W 094°03'0 0.0
2018-Feb-22 21:30N 30°02' W 094°03'0 0.0
2018-Feb-22 21:00N 30°02' W 094°03'0 0.0
2018-Feb-22 20:30N 30°02' W 094°03'0 0.0
2018-Feb-22 20:00N 30°02' W 094°03'0 0.0
2018-Feb-22 19:30N 30°02' W 094°03'0 0.0
2018-Feb-22 19:00N 30°02' W 094°03'0 0.0
2018-Feb-22 18:30N 30°02' W 094°03'0 0.0
2018-Feb-22 18:00N 30°02' W 094°03'0 0.0
2018-Feb-22 17:30N 30°02' W 094°03'0 0.0
2018-Feb-22 16:59N 30°02' W 094°03'0 0.0
2018-Feb-22 16:30N 30°02' W 094°03'0 0.0
2018-Feb-22 16:00N 30°02' W 094°03'0 0.0
2018-Feb-22 15:30N 30°02' W 094°03'0 0.0
2018-Feb-22 15:00N 30°02' W 094°03'0 0.0
2018-Feb-22 14:30N 30°02' W 094°03'0 0.0
2018-Feb-22 14:00N 30°02' W 094°03'0 0.0
2018-Feb-22 13:30N 30°02' W 094°03'0 0.0
2018-Feb-22 13:00N 30°02' W 094°03'0 0.0
2018-Feb-22 12:31N 30°02' W 094°03'0 0.0
2018-Feb-22 12:00N 30°02' W 094°03'0 0.0
2018-Feb-22 11:31N 30°02' W 094°03'0 0.0
2018-Feb-22 11:00N 30°02' W 094°03'0 0.0
2018-Feb-22 10:30N 30°02' W 094°03'0 0.0
2018-Feb-22 10:00N 30°02' W 094°03'0 0.0
2018-Feb-22 09:30N 30°02' W 094°03'0 0.0
2018-Feb-22 09:00N 30°02' W 094°03'0 0.0
2018-Feb-22 08:30N 30°02' W 094°03'0 0.0
2018-Feb-22 08:00N 30°02' W 094°03'0 0.0
2018-Feb-22 07:30N 30°02' W 094°03'0 0.0
2018-Feb-22 07:00N 30°02' W 094°03'0 0.0
2018-Feb-22 06:30N 30°02' W 094°03'0 0.0
2018-Feb-22 06:00N 30°02' W 094°03'0 0.0
2018-Feb-22 05:30N 30°02' W 094°03'0 0.0
2018-Feb-22 05:00N 30°02' W 094°03'0 0.0
2018-Feb-22 04:29N 30°02' W 094°03'0 0.0
2018-Feb-22 04:00N 30°02' W 094°03'0 0.0
2018-Feb-22 03:30N 30°02' W 094°03'0 0.0
2018-Feb-22 03:00N 30°02' W 094°03'0 0.0
2018-Feb-22 02:30N 30°02' W 094°03'0 0.0
2018-Feb-22 02:00N 30°02' W 094°03'0 0.0
2018-Feb-22 01:30N 30°02' W 094°03'0 0.0
2018-Feb-22 01:00N 30°02' W 094°03'0 0.0
2018-Feb-22 00:29N 30°02' W 094°03'0 0.1
2018-Feb-22 00:00N 30°02' W 094°03'0 0.2
2018-Feb-21 23:29N 30°02' W 094°03'0 0.0
2018-Feb-21 23:00N 30°02' W 094°03'0 0.0
2018-Feb-21 22:30N 30°02' W 094°03'0 0.0
2018-Feb-21 21:59N 30°02' W 094°03'0 0.0
2018-Feb-21 21:30N 30°02' W 094°03'0 0.0
2018-Feb-21 21:00N 30°02' W 094°03'0 0.0
2018-Feb-21 20:30N 30°02' W 094°03'0 0.0
2018-Feb-21 20:00N 30°02' W 094°03'0 0.0
2018-Feb-21 19:30N 30°02' W 094°03'0 0.0
2018-Feb-21 19:00N 30°02' W 094°03'0 0.0
2018-Feb-21 18:30N 30°02' W 094°03'0 0.0
2018-Feb-21 18:00N 30°02' W 094°03'0 0.0
2018-Feb-21 17:30N 30°02' W 094°03'0 0.0
2018-Feb-21 17:00N 30°02' W 094°03'0 0.0
2018-Feb-21 16:30N 30°02' W 094°03'0 0.0
2018-Feb-21 16:00N 30°02' W 094°03'0 0.0
2018-Feb-21 15:30N 30°02' W 094°03'0 0.0
2018-Feb-21 15:00N 30°02' W 094°03'0 0.0
2018-Feb-21 14:30N 30°02' W 094°03'0 0.0
2018-Feb-21 14:00N 30°02' W 094°03'0 0.0
2018-Feb-21 13:30N 30°02' W 094°03'0 0.0
2018-Feb-21 13:00N 30°02' W 094°03'0 0.0
2018-Feb-21 12:30N 30°02' W 094°03'0 0.0
2018-Feb-21 12:00N 30°02' W 094°03'0 0.0
2018-Feb-21 11:30N 30°02' W 094°03'0 0.0
2018-Feb-21 11:00N 30°02' W 094°03'0 0.0
2018-Feb-21 10:29N 30°02' W 094°03'0 0.0
2018-Feb-21 10:00N 30°02' W 094°03'0 0.0
2018-Feb-21 09:30N 30°02' W 094°03'0 0.0
2018-Feb-21 09:00N 30°02' W 094°03'0 0.0
2018-Feb-21 08:26N 30°02' W 094°03'0 0.0
2018-Feb-21 08:00N 30°02' W 094°03'0 0.0
2018-Feb-21 07:27N 30°02' W 094°03'0 0.0
2018-Feb-21 07:00N 30°02' W 094°03'0 0.0
2018-Feb-21 06:29N 30°02' W 094°03'0 0.0
2018-Feb-21 06:00N 30°02' W 094°03'0 0.0
2018-Feb-21 05:29N 30°02' W 094°03'0 0.0
2018-Feb-21 05:00N 30°02' W 094°03'0 0.0
2018-Feb-21 04:30N 30°02' W 094°03'0 0.0
2018-Feb-21 04:00N 30°02' W 094°03'0 0.0
2018-Feb-21 03:30N 30°02' W 094°03'0 0.0
2018-Feb-21 03:00N 30°02' W 094°03'0 0.0
2018-Feb-21 02:30N 30°02' W 094°03'0 0.0
2018-Feb-21 02:00N 30°02' W 094°03'0 0.0
2018-Feb-21 01:30N 30°02' W 094°03'0 0.0
2018-Feb-21 01:00N 30°02' W 094°03'0 0.0
2018-Feb-21 00:30N 30°02' W 094°03'0 0.0
2018-Feb-21 00:00N 30°02' W 094°03'0 0.0
2018-Feb-20 23:30N 30°02' W 094°03'0 0.0
2018-Feb-20 23:00N 30°02' W 094°03'0 0.0
2018-Feb-20 22:30N 30°02' W 094°03'0 0.1
2018-Feb-20 22:00N 30°02' W 094°03'0 0.0
2018-Feb-20 21:30N 30°02' W 094°03'0 0.0
2018-Feb-20 21:00N 30°02' W 094°03'0 0.0
2018-Feb-20 20:30N 30°02' W 094°03'0 0.0
2018-Feb-20 20:00N 30°02' W 094°03'0 0.0
2018-Feb-20 19:30N 30°02' W 094°03'0 0.0
2018-Feb-20 19:00N 30°02' W 094°03'0 0.0
2018-Feb-20 18:30N 30°02' W 094°03'0 0.0
2018-Feb-20 18:00N 30°02' W 094°03'0 0.0
2018-Feb-20 17:30N 30°02' W 094°03'0 0.0
2018-Feb-20 17:00N 30°02' W 094°03'0 0.0
2018-Feb-20 16:30N 30°02' W 094°03'0 0.0
2018-Feb-20 16:00N 30°02' W 094°03'0 0.0
2018-Feb-20 15:30N 30°02' W 094°03'0 0.0
2018-Feb-20 15:01N 30°02' W 094°03'0 0.0
2018-Feb-20 14:30N 30°02' W 094°03'0 0.0
2018-Feb-20 14:00N 30°02' W 094°03'0 0.0
2018-Feb-20 13:30N 30°02' W 094°03'0 0.0
2018-Feb-20 13:00N 30°02' W 094°03'0 0.0
2018-Feb-20 12:30N 30°02' W 094°03'0 0.0
2018-Feb-20 12:00N 30°02' W 094°03'0 0.0
2018-Feb-20 11:30N 30°02' W 094°03'0 0.0
2018-Feb-20 11:00N 30°02' W 094°03'0 0.0
2018-Feb-20 10:30N 30°02' W 094°03'0 0.0
2018-Feb-20 10:00N 30°02' W 094°03'0 0.0
2018-Feb-20 09:30N 30°02' W 094°03'0 0.0
2018-Feb-20 09:00N 30°02' W 094°03'0 0.0
2018-Feb-20 08:30N 30°02' W 094°03'0 0.0
2018-Feb-20 08:00N 30°02' W 094°03'0 0.0
2018-Feb-20 07:30N 30°02' W 094°03'0 0.0
2018-Feb-20 07:00N 30°02' W 094°03'0 0.0
2018-Feb-20 06:30N 30°02' W 094°03'0 0.0
2018-Feb-20 06:00N 30°02' W 094°03'0 0.0
2018-Feb-20 05:30N 30°02' W 094°03'0 0.0
2018-Feb-20 05:00N 30°02' W 094°03'0 0.0
2018-Feb-20 04:30N 30°02' W 094°03'0 0.0
2018-Feb-20 04:00N 30°02' W 094°03'0 0.0
2018-Feb-20 03:30N 30°02' W 094°03'0 0.0
2018-Feb-20 03:00N 30°02' W 094°03'0 0.0
2018-Feb-20 02:30N 30°02' W 094°03'0 0.0
2018-Feb-20 02:00N 30°02' W 094°03'0 0.1
2018-Feb-20 01:30N 30°02' W 094°03'2 4.3
2018-Feb-20 00:59N 30°01' W 094°01'3 6.4
2018-Feb-20 00:30N 30°00' W 093°57'3 6.9
2018-Feb-20 00:00N 29°59' W 093°54'2 4.5
2018-Feb-19 23:30N 29°58' W 093°52'0 0.0
2018-Feb-19 23:00N 29°58' W 093°52'0 0.0
2018-Feb-19 22:30N 29°58' W 093°52'0 0.0
2018-Feb-19 22:00N 29°58' W 093°52'0 0.0
2018-Feb-19 21:30N 29°58' W 093°52'0 0.0
2018-Feb-19 21:00N 29°58' W 093°52'1 2.7
2018-Feb-19 20:30N 29°59' W 093°52'2 3.4
2018-Feb-19 20:00N 29°59' W 093°54'4 7.1
2018-Feb-19 19:30N 30°01' W 093°58'4 7.2
2018-Feb-19 19:00N 30°02' W 094°02'1 2.1
2018-Feb-19 18:30N 30°02' W 094°03'0 0.0
2018-Feb-19 18:00N 30°02' W 094°03'0 0.0
2018-Feb-19 17:30N 30°02' W 094°03'0 0.0
2018-Feb-19 17:00N 30°02' W 094°03'0 0.0
2018-Feb-19 16:30N 30°02' W 094°03'0 0.0
2018-Feb-19 16:00N 30°02' W 094°03'0 0.0
2018-Feb-19 15:30N 30°02' W 094°03'0 0.0
2018-Feb-19 15:00N 30°02' W 094°03'0 0.0
2018-Feb-19 14:30N 30°02' W 094°03'0 0.0
2018-Feb-19 14:00N 30°02' W 094°03'0 0.0
2018-Feb-19 13:30N 30°02' W 094°03'0 0.0
2018-Feb-19 13:00N 30°02' W 094°03'0 0.0
2018-Feb-19 12:31N 30°02' W 094°03'0 0.0
2018-Feb-19 12:00N 30°02' W 094°03'0 0.0
2018-Feb-19 11:30N 30°02' W 094°03'0 0.0
2018-Feb-19 11:00N 30°02' W 094°03'0 0.0
2018-Feb-19 10:30N 30°02' W 094°03'0 0.0
2018-Feb-19 10:00N 30°02' W 094°03'0 0.0
2018-Feb-19 09:30N 30°02' W 094°03'0 0.0
2018-Feb-19 09:00N 30°02' W 094°03'0 0.0
2018-Feb-19 08:30N 30°02' W 094°03'0 0.0
2018-Feb-19 08:00N 30°02' W 094°03'0 0.0
2018-Feb-19 07:30N 30°02' W 094°03'0 0.0
2018-Feb-19 07:00N 30°02' W 094°03'0 0.0
2018-Feb-19 06:30N 30°02' W 094°03'0 0.0
2018-Feb-19 06:00N 30°02' W 094°03'0 0.0
2018-Feb-19 05:30N 30°02' W 094°03'0 0.0
2018-Feb-19 05:00N 30°02' W 094°03'0 0.0
2018-Feb-19 04:30N 30°02' W 094°03'0 0.0
2018-Feb-19 04:00N 30°02' W 094°03'0 0.0
2018-Feb-19 03:30N 30°02' W 094°03'0 0.0
2018-Feb-19 03:00N 30°02' W 094°03'0 0.0
2018-Feb-19 02:31N 30°02' W 094°03'0 0.0
2018-Feb-19 02:00N 30°02' W 094°03'0 0.0
2018-Feb-19 01:30N 30°02' W 094°03'0 0.0
2018-Feb-19 01:00N 30°02' W 094°03'0 0.0
2018-Feb-19 00:30N 30°02' W 094°03'0 0.0
2018-Feb-19 00:01N 30°02' W 094°03'0 0.0
2018-Feb-18 23:30N 30°02' W 094°03'0 0.0
2018-Feb-18 23:00N 30°02' W 094°03'0 0.0
2018-Feb-18 22:30N 30°02' W 094°03'0 0.0
2018-Feb-18 22:00N 30°02' W 094°03'0 0.0
2018-Feb-18 21:30N 30°02' W 094°03'0 0.0
2018-Feb-18 21:01N 30°02' W 094°03'0 0.0
2018-Feb-18 20:30N 30°02' W 094°03'0 0.0
2018-Feb-18 20:00N 30°02' W 094°03'0 0.0
2018-Feb-18 19:30N 30°02' W 094°03'0 0.0
2018-Feb-18 19:00N 30°02' W 094°03'0 0.0
2018-Feb-18 18:30N 30°02' W 094°03'0 0.0
2018-Feb-18 18:00N 30°02' W 094°03'0 0.0
2018-Feb-18 17:30N 30°02' W 094°03'0 0.0
2018-Feb-18 17:00N 30°02' W 094°03'0 0.0
2018-Feb-18 16:30N 30°02' W 094°03'0 0.0
2018-Feb-18 16:00N 30°02' W 094°03'0 0.0
2018-Feb-18 15:30N 30°02' W 094°03'0 0.0
2018-Feb-18 15:00N 30°02' W 094°03'0 0.0
2018-Feb-18 14:30N 30°02' W 094°03'0 0.0
2018-Feb-18 14:00N 30°02' W 094°03'0 0.0
2018-Feb-18 13:30N 30°02' W 094°03'0 0.0
2018-Feb-18 13:00N 30°02' W 094°03'0 0.0
2018-Feb-18 12:30N 30°02' W 094°03'0 0.0
2018-Feb-18 12:00N 30°02' W 094°03'0 0.0
2018-Feb-18 11:31N 30°02' W 094°03'0 0.0
2018-Feb-18 11:00N 30°02' W 094°03'0 0.0
2018-Feb-18 10:30N 30°02' W 094°03'0 0.0
2018-Feb-18 10:00N 30°02' W 094°03'0 0.0
2018-Feb-18 09:30N 30°02' W 094°03'0 0.0
2018-Feb-18 09:00N 30°02' W 094°03'0 0.0
2018-Feb-18 08:30N 30°02' W 094°03'0 0.0
2018-Feb-18 08:00N 30°02' W 094°03'0 0.0
2018-Feb-18 07:30N 30°02' W 094°03'0 0.0
2018-Feb-18 07:00N 30°02' W 094°03'0 0.0
2018-Feb-18 06:30N 30°02' W 094°03'0 0.0
2018-Feb-18 06:00N 30°02' W 094°03'0 0.0
2018-Feb-18 05:30N 30°02' W 094°03'0 0.0
2018-Feb-18 05:00N 30°02' W 094°03'0 0.0
2018-Feb-18 04:30N 30°02' W 094°03'0 0.0
2018-Feb-18 04:01N 30°02' W 094°03'0 0.0
2018-Feb-18 03:30N 30°02' W 094°03'0 0.0
2018-Feb-18 03:00N 30°02' W 094°03'0 0.0
2018-Feb-18 02:30N 30°02' W 094°03'0 0.0
2018-Feb-18 02:00N 30°02' W 094°03'0 0.0
2018-Feb-18 01:30N 30°02' W 094°03'0 0.0
2018-Feb-18 01:00N 30°02' W 094°03'0 0.0
2018-Feb-18 00:30N 30°02' W 094°03'0 0.0
2018-Feb-18 00:00N 30°02' W 094°03'0 0.1
2018-Feb-17 23:30N 30°02' W 094°03'1 1.2
2018-Feb-17 23:00N 30°02' W 094°02'3 6.5
2018-Feb-17 22:30N 30°01' W 093°59'3 5.8
2018-Feb-17 21:57N 29°59' W 093°55'3 6.8
2018-Feb-17 21:30N 29°59' W 093°52'3 6.5
2018-Feb-17 21:00N 29°59' W 093°48'4 8.0
2018-Feb-17 20:30N 30°01' W 093°45'3 6.8
2018-Feb-17 20:00N 30°04' W 093°42'5 7.1
2018-Feb-17 19:21N 30°04' W 093°36'3 6.5
2018-Feb-17 18:53N 30°04' W 093°33'2 6.4
2018-Feb-17 18:30N 30°04' W 093°30'3 6.4
2018-Feb-17 18:00N 30°04' W 093°26'3 6.4
2018-Feb-17 17:30N 30°04' W 093°22'2 4.9
2018-Feb-17 17:00N 30°05' W 093°20'3 6.2
2018-Feb-17 16:30N 30°08' W 093°20'0 0.4
2018-Feb-17 16:00N 30°08' W 093°19'0 0.0
2018-Feb-17 15:30N 30°08' W 093°19'0 0.0
2018-Feb-17 15:00N 30°08' W 093°19'0 0.0
2018-Feb-17 14:30N 30°08' W 093°19'0 0.0
2018-Feb-17 14:00N 30°08' W 093°19'0 0.0
2018-Feb-17 13:30N 30°08' W 093°19'0 0.0
2018-Feb-17 13:00N 30°08' W 093°19'0 0.0
2018-Feb-17 12:30N 30°08' W 093°19'0 0.0
2018-Feb-17 12:00N 30°08' W 093°19'0 0.0
2018-Feb-17 11:30N 30°08' W 093°19'0 0.0
2018-Feb-17 10:59N 30°08' W 093°19'0 0.0
2018-Feb-17 10:30N 30°08' W 093°19'0 0.0
2018-Feb-17 10:00N 30°08' W 093°19'0 0.0
2018-Feb-17 09:30N 30°08' W 093°19'0 0.0
2018-Feb-17 09:00N 30°08' W 093°19'0 0.0
2018-Feb-17 08:30N 30°08' W 093°19'0 0.0
2018-Feb-17 08:00N 30°08' W 093°19'0 0.0
2018-Feb-17 07:30N 30°08' W 093°19'0 0.0
2018-Feb-17 07:00N 30°08' W 093°19'0 0.0
2018-Feb-17 06:30N 30°08' W 093°19'0 0.0
2018-Feb-17 06:00N 30°08' W 093°19'0 0.0
2018-Feb-17 05:30N 30°08' W 093°19'0 0.0
2018-Feb-17 05:00N 30°08' W 093°19'0 0.0
2018-Feb-17 04:30N 30°08' W 093°19'0 0.0
2018-Feb-17 04:00N 30°08' W 093°19'0 0.0
2018-Feb-17 03:30N 30°08' W 093°19'0 0.0
2018-Feb-17 03:00N 30°08' W 093°19'0 0.1
2018-Feb-17 02:30N 30°08' W 093°19'0 0.1
2018-Feb-17 02:00N 30°08' W 093°19'0 0.0
2018-Feb-17 01:28N 30°08' W 093°19'0 0.0
2018-Feb-17 01:00N 30°08' W 093°19'0 0.0
2018-Feb-17 00:30N 30°08' W 093°19'0 0.0
2018-Feb-17 00:00N 30°08' W 093°19'0 0.0
2018-Feb-16 23:28N 30°08' W 093°19'0 0.0
2018-Feb-16 23:00N 30°08' W 093°19'0 0.0
2018-Feb-16 22:30N 30°08' W 093°19'0 0.0
2018-Feb-16 22:00N 30°08' W 093°19'2 3.3
2018-Feb-16 21:30N 30°06' W 093°20'1 1.8
2018-Feb-16 21:00N 30°06' W 093°19'2 4.2
2018-Feb-16 20:30N 30°05' W 093°17'1 1.1
2018-Feb-16 20:00N 30°05' W 093°16'0 0.0
2018-Feb-16 19:30N 30°05' W 093°16'0 0.0
2018-Feb-16 18:59N 30°05' W 093°16'0 0.1
2018-Feb-16 18:30N 30°04' W 093°16'2 3.0
2018-Feb-16 17:59N 30°03' W 093°16'2 4.3
2018-Feb-16 17:30N 30°02' W 093°14'2 4.0
2018-Feb-16 17:00N 29°60' W 093°13'0 0.4
2018-Feb-16 16:30N 29°60' W 093°13'3 5.4
2018-Feb-16 16:00N 29°58' W 093°11'2 4.9
2018-Feb-16 15:30N 29°56' W 093°09'3 5.1
2018-Feb-16 15:00N 29°56' W 093°06'18 3.4
2018-Feb-16 09:33N 29°58' W 092°45'0 0.0
2018-Feb-16 09:23N 29°58' W 092°45'0 0.0
2018-Feb-16 08:57N 29°58' W 092°45'0 0.0
2018-Feb-16 08:28N 29°58' W 092°45'0 0.0
2018-Feb-16 07:54N 29°58' W 092°45'24 3.2
2018-Feb-16 00:22N 29°50' W 092°18'2 4.3
2018-Feb-16 00:00N 29°49' W 092°17'2 4.5
2018-Feb-15 23:30N 29°48' W 092°15'2 4.4
2018-Feb-15 23:00N 29°47' W 092°13'2 4.0
2018-Feb-15 22:30N 29°47' W 092°10'2 4.7
2018-Feb-15 22:00N 29°47' W 092°08'2 4.7
2018-Feb-15 21:30N 29°48' W 092°05'2 4.5
2018-Feb-15 21:00N 29°49' W 092°03'2 4.3
2018-Feb-15 20:30N 29°50' W 092°00'  
Track history (hours):
 
Tides and Currents Weather Stations Pressure Air Temp Water Temp Dewpoint Dewpoint Depression Visibility Wind Speed Wind Dir Waves Ship Positions

Creole Ann

Owner: LeBeouf Bros. Towing, L.L.C., Houma, LA. More information available from US FCC via Universal Licensing System and Coast Guard Vessel Documentation Center.

Last reported at 2018-Feb-25 19:30 UTC. Time now 2018-Feb-25 19:33 UTC.
Position N 30°02' W 094°03'.

Length 20 m.

MMSI: 367005280.

Date/timePositionNaut miles runAvg speedWind from/ knotsBaromVisibWave heightAir tempDewpointWater temp
2018-Feb-25 19:30N 30°02' W 094°03'0 0.0
2018-Feb-25 19:00N 30°02' W 094°03'0 0.0
2018-Feb-25 18:30N 30°02' W 094°03'0 0.0
2018-Feb-25 18:00N 30°02' W 094°03'0 0.0
2018-Feb-25 17:31N 30°02' W 094°03'0 0.0
2018-Feb-25 17:00N 30°02' W 094°03'0 0.0
2018-Feb-25 16:30N 30°02' W 094°03'0 0.0
2018-Feb-25 16:00N 30°02' W 094°03'0 0.0
2018-Feb-25 15:30N 30°02' W 094°03'0 0.1
2018-Feb-25 15:00N 30°02' W 094°03'0 0.0
2018-Feb-25 14:30N 30°02' W 094°03'0 0.0
2018-Feb-25 14:00N 30°02' W 094°03'0 0.0
2018-Feb-25 13:30N 30°02' W 094°03'0 0.0
2018-Feb-25 13:00N 30°02' W 094°03'0 0.0
2018-Feb-25 12:30N 30°02' W 094°03'0 0.0
2018-Feb-25 12:01N 30°02' W 094°03'0 0.0
2018-Feb-25 11:30N 30°02' W 094°03'0 0.0
2018-Feb-25 11:00N 30°02' W 094°03'0 0.0
2018-Feb-25 10:30N 30°02' W 094°03'0 0.0
2018-Feb-25 10:00N 30°02' W 094°03'0 0.0
2018-Feb-25 09:30N 30°02' W 094°03'0 0.0
2018-Feb-25 09:01N 30°02' W 094°03'0 0.0
2018-Feb-25 08:30N 30°02' W 094°03'0 0.0
2018-Feb-25 08:00N 30°02' W 094°03'0 0.0
2018-Feb-25 07:30N 30°02' W 094°03'0 0.0
2018-Feb-25 06:59N 30°02' W 094°03'0 0.0
2018-Feb-25 06:30N 30°02' W 094°03'0 0.0
2018-Feb-25 06:00N 30°02' W 094°03'0 0.0
2018-Feb-25 05:30N 30°02' W 094°03'0 0.0
2018-Feb-25 05:00N 30°02' W 094°03'0 0.0
2018-Feb-25 04:30N 30°02' W 094°03'0 0.0
2018-Feb-25 04:00N 30°02' W 094°03'0 0.0
2018-Feb-25 03:29N 30°02' W 094°03'0 0.0
2018-Feb-25 03:00N 30°02' W 094°03'0 0.0
2018-Feb-25 02:29N 30°02' W 094°03'0 0.0
2018-Feb-25 02:00N 30°02' W 094°03'0 0.0
2018-Feb-25 01:30N 30°02' W 094°03'0 0.0
2018-Feb-25 01:00N 30°02' W 094°03'0 0.0
2018-Feb-25 00:30N 30°02' W 094°03'0 0.0
2018-Feb-25 00:00N 30°02' W 094°03'0 0.0
2018-Feb-24 23:30N 30°02' W 094°03'0 0.0
2018-Feb-24 23:00N 30°02' W 094°03'0 0.0
2018-Feb-24 22:30N 30°02' W 094°03'0 0.0
2018-Feb-24 22:00N 30°02' W 094°03'0 0.0
2018-Feb-24 21:30N 30°02' W 094°03'0 0.0
2018-Feb-24 21:01N 30°02' W 094°03'0 0.0
2018-Feb-24 20:30N 30°02' W 094°03'0 0.0
2018-Feb-24 20:00N 30°02' W 094°03'0 0.0
2018-Feb-24 19:30N 30°02' W 094°03'0 0.0
2018-Feb-24 19:00N 30°02' W 094°03'0 0.0
2018-Feb-24 18:30N 30°02' W 094°03'0 0.0
2018-Feb-24 18:00N 30°02' W 094°03'0 0.0
2018-Feb-24 17:30N 30°02' W 094°03'0 0.0
2018-Feb-24 17:00N 30°02' W 094°03'0 0.0
2018-Feb-24 16:30N 30°02' W 094°03'0 0.0
2018-Feb-24 16:00N 30°02' W 094°03'0 0.2
2018-Feb-24 15:31N 30°02' W 094°03'3 6.1
2018-Feb-24 15:00N 30°01' W 093°60'0 0.9
2018-Feb-24 14:30N 30°01' W 093°59'3 5.4
2018-Feb-24 14:01N 29°60' W 093°56'3 6.4
2018-Feb-24 13:30N 29°59' W 093°53'3 5.9
2018-Feb-24 13:00N 29°59' W 093°49'4 7.5
2018-Feb-24 12:30N 30°01' W 093°46'4 7.4
2018-Feb-24 12:00N 30°03' W 093°42'4 7.6
2018-Feb-24 11:30N 30°04' W 093°38'4 7.1
2018-Feb-24 10:59N 30°04' W 093°34'3 6.9
2018-Feb-24 10:30N 30°04' W 093°30'3 6.9
2018-Feb-24 10:00N 30°04' W 093°26'3 6.8
2018-Feb-24 09:30N 30°04' W 093°22'3 5.5
2018-Feb-24 09:00N 30°05' W 093°20'3 5.5
2018-Feb-24 08:30N 30°08' W 093°19'0 0.2
2018-Feb-24 08:00N 30°08' W 093°19'0 0.0
2018-Feb-24 07:30N 30°08' W 093°19'0 0.0
2018-Feb-24 07:00N 30°08' W 093°19'0 0.0
2018-Feb-24 06:30N 30°08' W 093°19'0 0.0
2018-Feb-24 06:00N 30°08' W 093°19'0 0.0
2018-Feb-24 05:30N 30°08' W 093°19'0 0.0
2018-Feb-24 05:00N 30°08' W 093°19'0 0.0
2018-Feb-24 04:30N 30°08' W 093°19'0 0.0
2018-Feb-24 04:00N 30°08' W 093°19'0 0.0
2018-Feb-24 03:30N 30°08' W 093°19'0 0.0
2018-Feb-24 03:00N 30°08' W 093°19'0 0.0
2018-Feb-24 02:30N 30°08' W 093°19'0 0.0
2018-Feb-24 01:59N 30°08' W 093°19'0 0.0
2018-Feb-24 01:30N 30°08' W 093°19'0 0.0
2018-Feb-24 01:00N 30°08' W 093°19'0 0.0
2018-Feb-24 00:30N 30°08' W 093°19'0 0.0
2018-Feb-23 23:58N 30°08' W 093°19'0 0.0
2018-Feb-23 23:30N 30°08' W 093°19'0 0.0
2018-Feb-23 23:00N 30°08' W 093°19'0 0.1
2018-Feb-23 22:30N 30°08' W 093°19'0 0.0
2018-Feb-23 21:46N 30°08' W 093°19'0 0.0
2018-Feb-23 21:20N 30°08' W 093°19'0 0.0
2018-Feb-23 20:18N 30°08' W 093°19'0 0.0
2018-Feb-23 19:56N 30°08' W 093°19'0 0.1
2018-Feb-23 19:30N 30°08' W 093°19'3 4.9
2018-Feb-23 18:54N 30°05' W 093°20'2 4.3
2018-Feb-23 18:24N 30°04' W 093°21'2 3.9
2018-Feb-23 17:58N 30°04' W 093°23'2 3.9
2018-Feb-23 17:28N 30°04' W 093°26'2 4.3
2018-Feb-23 16:54N 30°04' W 093°28'6 4.3
2018-Feb-23 15:30N 30°04' W 093°36'3 4.5
2018-Feb-23 14:54N 30°04' W 093°39'2 4.6
2018-Feb-23 14:30N 30°03' W 093°41'2 4.0
2018-Feb-23 14:00N 30°03' W 093°43'2 4.2
2018-Feb-23 13:30N 30°02' W 093°44'2 4.3
2018-Feb-23 13:00N 30°00' W 093°46'2 4.6
2018-Feb-23 12:30N 29°59' W 093°49'2 4.9
2018-Feb-23 12:00N 29°58' W 093°51'2 3.5
2018-Feb-23 11:30N 29°59' W 093°53'0 0.1
2018-Feb-23 11:00N 29°59' W 093°53'0 0.0
2018-Feb-23 10:30N 29°59' W 093°53'0 0.0
2018-Feb-23 10:00N 29°59' W 093°53'0 0.0
2018-Feb-23 09:30N 29°59' W 093°53'0 0.0
2018-Feb-23 09:00N 29°59' W 093°53'0 0.0
2018-Feb-23 08:30N 29°59' W 093°53'0 0.0
2018-Feb-23 08:00N 29°59' W 093°53'0 0.0
2018-Feb-23 07:30N 29°59' W 093°53'0 0.0
2018-Feb-23 07:00N 29°59' W 093°53'1 1.8
2018-Feb-23 06:30N 29°59' W 093°54'3 6.3
2018-Feb-23 06:00N 30°00' W 093°57'3 5.8
2018-Feb-23 05:30N 30°01' W 094°01'2 4.5
2018-Feb-23 05:00N 30°02' W 094°03'0 0.2
2018-Feb-23 04:30N 30°02' W 094°03'0 0.0
2018-Feb-23 04:00N 30°02' W 094°03'0 0.0
2018-Feb-23 03:30N 30°02' W 094°03'0 0.0
2018-Feb-23 03:00N 30°02' W 094°03'0 0.0
2018-Feb-23 02:30N 30°02' W 094°03'0 0.0
2018-Feb-23 02:00N 30°02' W 094°03'0 0.0
2018-Feb-23 01:28N 30°02' W 094°03'0 0.0
2018-Feb-23 01:00N 30°02' W 094°03'0 0.0
2018-Feb-23 00:30N 30°02' W 094°03'0 0.0
2018-Feb-23 00:00N 30°02' W 094°03'0 0.0
2018-Feb-22 23:30N 30°02' W 094°03'0 0.0
2018-Feb-22 23:00N 30°02' W 094°03'0 0.0
2018-Feb-22 22:30N 30°02' W 094°03'0 0.0
2018-Feb-22 22:00N 30°02' W 094°03'0 0.0
2018-Feb-22 21:30N 30°02' W 094°03'0 0.0
2018-Feb-22 21:00N 30°02' W 094°03'0 0.0
2018-Feb-22 20:30N 30°02' W 094°03'0 0.0
2018-Feb-22 20:00N 30°02' W 094°03'0 0.0
2018-Feb-22 19:30N 30°02' W 094°03'0 0.0
2018-Feb-22 19:00N 30°02' W 094°03'0 0.0
2018-Feb-22 18:30N 30°02' W 094°03'0 0.0
2018-Feb-22 18:00N 30°02' W 094°03'0 0.0
2018-Feb-22 17:30N 30°02' W 094°03'0 0.0
2018-Feb-22 16:59N 30°02' W 094°03'0 0.0
2018-Feb-22 16:30N 30°02' W 094°03'0 0.0
2018-Feb-22 16:00N 30°02' W 094°03'0 0.0
2018-Feb-22 15:30N 30°02' W 094°03'0 0.0
2018-Feb-22 15:00N 30°02' W 094°03'0 0.0
2018-Feb-22 14:30N 30°02' W 094°03'0 0.0
2018-Feb-22 14:00N 30°02' W 094°03'0 0.0
2018-Feb-22 13:30N 30°02' W 094°03'0 0.0
2018-Feb-22 13:00N 30°02' W 094°03'0 0.0
2018-Feb-22 12:31N 30°02' W 094°03'0 0.0
2018-Feb-22 12:00N 30°02' W 094°03'0 0.0
2018-Feb-22 11:31N 30°02' W 094°03'0 0.0
2018-Feb-22 11:00N 30°02' W 094°03'0 0.0
2018-Feb-22 10:30N 30°02' W 094°03'0 0.0
2018-Feb-22 10:00N 30°02' W 094°03'0 0.0
2018-Feb-22 09:30N 30°02' W 094°03'0 0.0
2018-Feb-22 09:00N 30°02' W 094°03'0 0.0
2018-Feb-22 08:30N 30°02' W 094°03'0 0.0
2018-Feb-22 08:00N 30°02' W 094°03'0 0.0
2018-Feb-22 07:30N 30°02' W 094°03'0 0.0
2018-Feb-22 07:00N 30°02' W 094°03'0 0.0
2018-Feb-22 06:30N 30°02' W 094°03'0 0.0
2018-Feb-22 06:00N 30°02' W 094°03'0 0.0
2018-Feb-22 05:30N 30°02' W 094°03'0 0.0
2018-Feb-22 05:00N 30°02' W 094°03'0 0.0
2018-Feb-22 04:29N 30°02' W 094°03'0 0.0
2018-Feb-22 04:00N 30°02' W 094°03'0 0.0
2018-Feb-22 03:30N 30°02' W 094°03'0 0.0
2018-Feb-22 03:00N 30°02' W 094°03'0 0.0
2018-Feb-22 02:30N 30°02' W 094°03'0 0.0
2018-Feb-22 02:00N 30°02' W 094°03'0 0.0
2018-Feb-22 01:30N 30°02' W 094°03'0 0.0
2018-Feb-22 01:00N 30°02' W 094°03'0 0.0
2018-Feb-22 00:29N 30°02' W 094°03'0 0.1
2018-Feb-22 00:00N 30°02' W 094°03'0 0.2
2018-Feb-21 23:29N 30°02' W 094°03'0 0.0
2018-Feb-21 23:00N 30°02' W 094°03'0 0.0
2018-Feb-21 22:30N 30°02' W 094°03'0 0.0
2018-Feb-21 21:59N 30°02' W 094°03'0 0.0
2018-Feb-21 21:30N 30°02' W 094°03'0 0.0
2018-Feb-21 21:00N 30°02' W 094°03'0 0.0
2018-Feb-21 20:30N 30°02' W 094°03'0 0.0
2018-Feb-21 20:00N 30°02' W 094°03'0 0.0
2018-Feb-21 19:30N 30°02' W 094°03'0 0.0
2018-Feb-21 19:00N 30°02' W 094°03'0 0.0
2018-Feb-21 18:30N 30°02' W 094°03'0 0.0
2018-Feb-21 18:00N 30°02' W 094°03'0 0.0
2018-Feb-21 17:30N 30°02' W 094°03'0 0.0
2018-Feb-21 17:00N 30°02' W 094°03'0 0.0
2018-Feb-21 16:30N 30°02' W 094°03'0 0.0
2018-Feb-21 16:00N 30°02' W 094°03'0 0.0
2018-Feb-21 15:30N 30°02' W 094°03'0 0.0
2018-Feb-21 15:00N 30°02' W 094°03'0 0.0
2018-Feb-21 14:30N 30°02' W 094°03'0 0.0
2018-Feb-21 14:00N 30°02' W 094°03'0 0.0
2018-Feb-21 13:30N 30°02' W 094°03'0 0.0
2018-Feb-21 13:00N 30°02' W 094°03'0 0.0
2018-Feb-21 12:30N 30°02' W 094°03'0 0.0
2018-Feb-21 12:00N 30°02' W 094°03'0 0.0
2018-Feb-21 11:30N 30°02' W 094°03'0 0.0
2018-Feb-21 11:00N 30°02' W 094°03'0 0.0
2018-Feb-21 10:29N 30°02' W 094°03'0 0.0
2018-Feb-21 10:00N 30°02' W 094°03'0 0.0
2018-Feb-21 09:30N 30°02' W 094°03'0 0.0
2018-Feb-21 09:00N 30°02' W 094°03'0 0.0
2018-Feb-21 08:26N 30°02' W 094°03'0 0.0
2018-Feb-21 08:00N 30°02' W 094°03'0 0.0
2018-Feb-21 07:27N 30°02' W 094°03'0 0.0
2018-Feb-21 07:00N 30°02' W 094°03'0 0.0
2018-Feb-21 06:29N 30°02' W 094°03'0 0.0
2018-Feb-21 06:00N 30°02' W 094°03'0 0.0
2018-Feb-21 05:29N 30°02' W 094°03'0 0.0
2018-Feb-21 05:00N 30°02' W 094°03'0 0.0
2018-Feb-21 04:30N 30°02' W 094°03'0 0.0
2018-Feb-21 04:00N 30°02' W 094°03'0 0.0
2018-Feb-21 03:30N 30°02' W 094°03'0 0.0
2018-Feb-21 03:00N 30°02' W 094°03'0 0.0
2018-Feb-21 02:30N 30°02' W 094°03'0 0.0
2018-Feb-21 02:00N 30°02' W 094°03'0 0.0
2018-Feb-21 01:30N 30°02' W 094°03'0 0.0
2018-Feb-21 01:00N 30°02' W 094°03'0 0.0
2018-Feb-21 00:30N 30°02' W 094°03'0 0.0
2018-Feb-21 00:00N 30°02' W 094°03'0 0.0
2018-Feb-20 23:30N 30°02' W 094°03'0 0.0
2018-Feb-20 23:00N 30°02' W 094°03'0 0.0
2018-Feb-20 22:30N 30°02' W 094°03'0 0.1
2018-Feb-20 22:00N 30°02' W 094°03'0 0.0
2018-Feb-20 21:30N 30°02' W 094°03'0 0.0
2018-Feb-20 21:00N 30°02' W 094°03'0 0.0
2018-Feb-20 20:30N 30°02' W 094°03'0 0.0
2018-Feb-20 20:00N 30°02' W 094°03'0 0.0
2018-Feb-20 19:30N 30°02' W 094°03'0 0.0
2018-Feb-20 19:00N 30°02' W 094°03'0 0.0
2018-Feb-20 18:30N 30°02' W 094°03'0 0.0
2018-Feb-20 18:00N 30°02' W 094°03'0 0.0
2018-Feb-20 17:30N 30°02' W 094°03'0 0.0
2018-Feb-20 17:00N 30°02' W 094°03'0 0.0
2018-Feb-20 16:30N 30°02' W 094°03'0 0.0
2018-Feb-20 16:00N 30°02' W 094°03'0 0.0
2018-Feb-20 15:30N 30°02' W 094°03'0 0.0
2018-Feb-20 15:01N 30°02' W 094°03'0 0.0
2018-Feb-20 14:30N 30°02' W 094°03'0 0.0
2018-Feb-20 14:00N 30°02' W 094°03'0 0.0
2018-Feb-20 13:30N 30°02' W 094°03'0 0.0
2018-Feb-20 13:00N 30°02' W 094°03'0 0.0
2018-Feb-20 12:30N 30°02' W 094°03'0 0.0
2018-Feb-20 12:00N 30°02' W 094°03'0 0.0
2018-Feb-20 11:30N 30°02' W 094°03'0 0.0
2018-Feb-20 11:00N 30°02' W 094°03'0 0.0
2018-Feb-20 10:30N 30°02' W 094°03'0 0.0
2018-Feb-20 10:00N 30°02' W 094°03'0 0.0
2018-Feb-20 09:30N 30°02' W 094°03'0 0.0
2018-Feb-20 09:00N 30°02' W 094°03'0 0.0
2018-Feb-20 08:30N 30°02' W 094°03'0 0.0
2018-Feb-20 08:00N 30°02' W 094°03'0 0.0
2018-Feb-20 07:30N 30°02' W 094°03'0 0.0
2018-Feb-20 07:00N 30°02' W 094°03'0 0.0
2018-Feb-20 06:30N 30°02' W 094°03'0 0.0
2018-Feb-20 06:00N 30°02' W 094°03'0 0.0
2018-Feb-20 05:30N 30°02' W 094°03'0 0.0
2018-Feb-20 05:00N 30°02' W 094°03'0 0.0
2018-Feb-20 04:30N 30°02' W 094°03'0 0.0
2018-Feb-20 04:00N 30°02' W 094°03'0 0.0
2018-Feb-20 03:30N 30°02' W 094°03'0 0.0
2018-Feb-20 03:00N 30°02' W 094°03'0 0.0
2018-Feb-20 02:30N 30°02' W 094°03'0 0.0
2018-Feb-20 02:00N 30°02' W 094°03'0 0.1
2018-Feb-20 01:30N 30°02' W 094°03'2 4.3
2018-Feb-20 00:59N 30°01' W 094°01'3 6.4
2018-Feb-20 00:30N 30°00' W 093°57'3 6.9
2018-Feb-20 00:00N 29°59' W 093°54'2 4.5
2018-Feb-19 23:30N 29°58' W 093°52'0 0.0
2018-Feb-19 23:00N 29°58' W 093°52'0 0.0
2018-Feb-19 22:30N 29°58' W 093°52'0 0.0
2018-Feb-19 22:00N 29°58' W 093°52'0 0.0
2018-Feb-19 21:30N 29°58' W 093°52'0 0.0
2018-Feb-19 21:00N 29°58' W 093°52'1 2.7
2018-Feb-19 20:30N 29°59' W 093°52'2 3.4
2018-Feb-19 20:00N 29°59' W 093°54'4 7.1
2018-Feb-19 19:30N 30°01' W 093°58'4 7.2
2018-Feb-19 19:00N 30°02' W 094°02'1 2.1
2018-Feb-19 18:30N 30°02' W 094°03'0 0.0
2018-Feb-19 18:00N 30°02' W 094°03'0 0.0
2018-Feb-19 17:30N 30°02' W 094°03'0 0.0
2018-Feb-19 17:00N 30°02' W 094°03'0 0.0
2018-Feb-19 16:30N 30°02' W 094°03'0 0.0
2018-Feb-19 16:00N 30°02' W 094°03'0 0.0
2018-Feb-19 15:30N 30°02' W 094°03'0 0.0
2018-Feb-19 15:00N 30°02' W 094°03'0 0.0
2018-Feb-19 14:30N 30°02' W 094°03'0 0.0
2018-Feb-19 14:00N 30°02' W 094°03'0 0.0
2018-Feb-19 13:30N 30°02' W 094°03'0 0.0
2018-Feb-19 13:00N 30°02' W 094°03'0 0.0
2018-Feb-19 12:31N 30°02' W 094°03'0 0.0
2018-Feb-19 12:00N 30°02' W 094°03'0 0.0
2018-Feb-19 11:30N 30°02' W 094°03'0 0.0
2018-Feb-19 11:00N 30°02' W 094°03'0 0.0
2018-Feb-19 10:30N 30°02' W 094°03'0 0.0
2018-Feb-19 10:00N 30°02' W 094°03'0 0.0
2018-Feb-19 09:30N 30°02' W 094°03'0 0.0
2018-Feb-19 09:00N 30°02' W 094°03'0 0.0
2018-Feb-19 08:30N 30°02' W 094°03'0 0.0
2018-Feb-19 08:00N 30°02' W 094°03'0 0.0
2018-Feb-19 07:30N 30°02' W 094°03'0 0.0
2018-Feb-19 07:00N 30°02' W 094°03'0 0.0
2018-Feb-19 06:30N 30°02' W 094°03'0 0.0
2018-Feb-19 06:00N 30°02' W 094°03'0 0.0
2018-Feb-19 05:30N 30°02' W 094°03'0 0.0
2018-Feb-19 05:00N 30°02' W 094°03'0 0.0
2018-Feb-19 04:30N 30°02' W 094°03'0 0.0
2018-Feb-19 04:00N 30°02' W 094°03'0 0.0
2018-Feb-19 03:30N 30°02' W 094°03'0 0.0
2018-Feb-19 03:00N 30°02' W 094°03'0 0.0
2018-Feb-19 02:31N 30°02' W 094°03'0 0.0
2018-Feb-19 02:00N 30°02' W 094°03'0 0.0
2018-Feb-19 01:30N 30°02' W 094°03'0 0.0
2018-Feb-19 01:00N 30°02' W 094°03'0 0.0
2018-Feb-19 00:30N 30°02' W 094°03'0 0.0
2018-Feb-19 00:01N 30°02' W 094°03'0 0.0
2018-Feb-18 23:30N 30°02' W 094°03'0 0.0
2018-Feb-18 23:00N 30°02' W 094°03'0 0.0
2018-Feb-18 22:30N 30°02' W 094°03'0 0.0
2018-Feb-18 22:00N 30°02' W 094°03'0 0.0
2018-Feb-18 21:30N 30°02' W 094°03'0 0.0
2018-Feb-18 21:01N 30°02' W 094°03'0 0.0
2018-Feb-18 20:30N 30°02' W 094°03'0 0.0
2018-Feb-18 20:00N 30°02' W 094°03'0 0.0
2018-Feb-18 19:30N 30°02' W 094°03'0 0.0
2018-Feb-18 19:00N 30°02' W 094°03'0 0.0
2018-Feb-18 18:30N 30°02' W 094°03'0 0.0
2018-Feb-18 18:00N 30°02' W 094°03'0 0.0
2018-Feb-18 17:30N 30°02' W 094°03'0 0.0
2018-Feb-18 17:00N 30°02' W 094°03'0 0.0
2018-Feb-18 16:30N 30°02' W 094°03'0 0.0
2018-Feb-18 16:00N 30°02' W 094°03'0 0.0
2018-Feb-18 15:30N 30°02' W 094°03'0 0.0
2018-Feb-18 15:00N 30°02' W 094°03'0 0.0
2018-Feb-18 14:30N 30°02' W 094°03'0 0.0
2018-Feb-18 14:00N 30°02' W 094°03'0 0.0
2018-Feb-18 13:30N 30°02' W 094°03'0 0.0
2018-Feb-18 13:00N 30°02' W 094°03'0 0.0
2018-Feb-18 12:30N 30°02' W 094°03'0 0.0
2018-Feb-18 12:00N 30°02' W 094°03'0 0.0
2018-Feb-18 11:31N 30°02' W 094°03'0 0.0
2018-Feb-18 11:00N 30°02' W 094°03'0 0.0
2018-Feb-18 10:30N 30°02' W 094°03'0 0.0
2018-Feb-18 10:00N 30°02' W 094°03'0 0.0
2018-Feb-18 09:30N 30°02' W 094°03'0 0.0
2018-Feb-18 09:00N 30°02' W 094°03'0 0.0
2018-Feb-18 08:30N 30°02' W 094°03'0 0.0
2018-Feb-18 08:00N 30°02' W 094°03'0 0.0
2018-Feb-18 07:30N 30°02' W 094°03'0 0.0
2018-Feb-18 07:00N 30°02' W 094°03'0 0.0
2018-Feb-18 06:30N 30°02' W 094°03'0 0.0
2018-Feb-18 06:00N 30°02' W 094°03'0 0.0
2018-Feb-18 05:30N 30°02' W 094°03'0 0.0
2018-Feb-18 05:00N 30°02' W 094°03'0 0.0
2018-Feb-18 04:30N 30°02' W 094°03'0 0.0
2018-Feb-18 04:01N 30°02' W 094°03'0 0.0
2018-Feb-18 03:30N 30°02' W 094°03'0 0.0
2018-Feb-18 03:00N 30°02' W 094°03'0 0.0
2018-Feb-18 02:30N 30°02' W 094°03'0 0.0
2018-Feb-18 02:00N 30°02' W 094°03'0 0.0
2018-Feb-18 01:30N 30°02' W 094°03'0 0.0
2018-Feb-18 01:00N 30°02' W 094°03'0 0.0
2018-Feb-18 00:30N 30°02' W 094°03'0 0.0
2018-Feb-18 00:00N 30°02' W 094°03'0 0.1
2018-Feb-17 23:30N 30°02' W 094°03'1 1.2
2018-Feb-17 23:00N 30°02' W 094°02'3 6.5
2018-Feb-17 22:30N 30°01' W 093°59'3 5.8
2018-Feb-17 21:57N 29°59' W 093°55'3 6.8
2018-Feb-17 21:30N 29°59' W 093°52'3 6.5
2018-Feb-17 21:00N 29°59' W 093°48'4 8.0
2018-Feb-17 20:30N 30°01' W 093°45'3 6.8
2018-Feb-17 20:00N 30°04' W 093°42'5 7.1
2018-Feb-17 19:21N 30°04' W 093°36'3 6.5
2018-Feb-17 18:53N 30°04' W 093°33'2 6.4
2018-Feb-17 18:30N 30°04' W 093°30'3 6.4
2018-Feb-17 18:00N 30°04' W 093°26'3 6.4
2018-Feb-17 17:30N 30°04' W 093°22'2 4.9
2018-Feb-17 17:00N 30°05' W 093°20'3 6.2
2018-Feb-17 16:30N 30°08' W 093°20'0 0.4
2018-Feb-17 16:00N 30°08' W 093°19'0 0.0
2018-Feb-17 15:30N 30°08' W 093°19'0 0.0
2018-Feb-17 15:00N 30°08' W 093°19'0 0.0
2018-Feb-17 14:30N 30°08' W 093°19'0 0.0
2018-Feb-17 14:00N 30°08' W 093°19'0 0.0
2018-Feb-17 13:30N 30°08' W 093°19'0 0.0
2018-Feb-17 13:00N 30°08' W 093°19'0 0.0
2018-Feb-17 12:30N 30°08' W 093°19'0 0.0
2018-Feb-17 12:00N 30°08' W 093°19'0 0.0
2018-Feb-17 11:30N 30°08' W 093°19'0 0.0
2018-Feb-17 10:59N 30°08' W 093°19'0 0.0
2018-Feb-17 10:30N 30°08' W 093°19'0 0.0
2018-Feb-17 10:00N 30°08' W 093°19'0 0.0
2018-Feb-17 09:30N 30°08' W 093°19'0 0.0
2018-Feb-17 09:00N 30°08' W 093°19'0 0.0
2018-Feb-17 08:30N 30°08' W 093°19'0 0.0
2018-Feb-17 08:00N 30°08' W 093°19'0 0.0
2018-Feb-17 07:30N 30°08' W 093°19'0 0.0
2018-Feb-17 07:00N 30°08' W 093°19'0 0.0
2018-Feb-17 06:30N 30°08' W 093°19'0 0.0
2018-Feb-17 06:00N 30°08' W 093°19'0 0.0
2018-Feb-17 05:30N 30°08' W 093°19'0 0.0
2018-Feb-17 05:00N 30°08' W 093°19'0 0.0
2018-Feb-17 04:30N 30°08' W 093°19'0 0.0
2018-Feb-17 04:00N 30°08' W 093°19'0 0.0
2018-Feb-17 03:30N 30°08' W 093°19'0 0.0
2018-Feb-17 03:00N 30°08' W 093°19'0 0.1
2018-Feb-17 02:30N 30°08' W 093°19'0 0.1
2018-Feb-17 02:00N 30°08' W 093°19'0 0.0
2018-Feb-17 01:28N 30°08' W 093°19'0 0.0
2018-Feb-17 01:00N 30°08' W 093°19'0 0.0
2018-Feb-17 00:30N 30°08' W 093°19'0 0.0
2018-Feb-17 00:00N 30°08' W 093°19'0 0.0
2018-Feb-16 23:28N 30°08' W 093°19'0 0.0
2018-Feb-16 23:00N 30°08' W 093°19'0 0.0
2018-Feb-16 22:30N 30°08' W 093°19'0 0.0
2018-Feb-16 22:00N 30°08' W 093°19'2 3.3
2018-Feb-16 21:30N 30°06' W 093°20'1 1.8
2018-Feb-16 21:00N 30°06' W 093°19'2 4.2
2018-Feb-16 20:30N 30°05' W 093°17'1 1.1
2018-Feb-16 20:00N 30°05' W 093°16'0 0.0
2018-Feb-16 19:30N 30°05' W 093°16'0 0.0
2018-Feb-16 18:59N 30°05' W 093°16'0 0.1
2018-Feb-16 18:30N 30°04' W 093°16'2 3.0
2018-Feb-16 17:59N 30°03' W 093°16'2 4.3
2018-Feb-16 17:30N 30°02' W 093°14'2 4.0
2018-Feb-16 17:00N 29°60' W 093°13'0 0.4
2018-Feb-16 16:30N 29°60' W 093°13'3 5.4
2018-Feb-16 16:00N 29°58' W 093°11'2 4.9
2018-Feb-16 15:30N 29°56' W 093°09'3 5.1
2018-Feb-16 15:00N 29°56' W 093°06'18 3.4
2018-Feb-16 09:33N 29°58' W 092°45'0 0.0
2018-Feb-16 09:23N 29°58' W 092°45'0 0.0
2018-Feb-16 08:57N 29°58' W 092°45'0 0.0
2018-Feb-16 08:28N 29°58' W 092°45'0 0.0
2018-Feb-16 07:54N 29°58' W 092°45'24 3.2
2018-Feb-16 00:22N 29°50' W 092°18'2 4.3
2018-Feb-16 00:00N 29°49' W 092°17'2 4.5
2018-Feb-15 23:30N 29°48' W 092°15'2 4.4
2018-Feb-15 23:00N 29°47' W 092°13'2 4.0
2018-Feb-15 22:30N 29°47' W 092°10'2 4.7
2018-Feb-15 22:00N 29°47' W 092°08'2 4.7
2018-Feb-15 21:30N 29°48' W 092°05'2 4.5
2018-Feb-15 21:00N 29°49' W 092°03'2 4.3
2018-Feb-15 20:30N 29°50' W 092°00'  

Dump ship's entire track history